Visit the IPS Meteostar Home Page IPSM San Jose International Airport FORECAST

San Jose, California

47

65

68

68

68

70

70

65

38
38
42
42
45
45
45
48

1 miles away at San Jose International Airport 6:53 GMT

Weather:

 Clear 

Wind:

SSE 5 mph

Temperature:

47 ° F

Pressure:

30.44

Dew Point:

34 ° F

Relative Humidity:

60

Feels Like:

45 ° F

Visibility:

10 miles


Aviation Observations:

KSJC 230653Z 16004KT 10SM FEW085 08/01 A3042 RMK AO2 SLP300 T00830011 =

National Weather Service Forecast:
Santa Clara Valley Including San Jose

santa clara valley...including san jose-
900 PM PST TUE JAN 22 2019 Rest of tonight...mostly clear. Lows in the upper 30s. Southwest winds 5 to 10 mph.

WEDNESDAY

Sunny. Highs in the mid 60s. Northwest winds 5 to 15 mph.

WEDNESDAY NIGHT

Mostly clear in the evening then becoming partly cloudy. Lows in the lower 40s. Northwest winds 5 to 10 mph.

THURSDAY

Sunny. Highs in the upper 60s. Northwest winds 10 to 15 mph.

THURSDAY NIGHT

Clear. Lows in the lower 40s. Northwest winds 5 to 15 mph.

FRIDAY

Sunny. Highs in the upper 60s.

FRIDAY NIGHT THROUGH SATURDAY NIGHT

Mostly clear. Lows in the mid 40s. Highs in the upper 60s.

SUNDAY THROUGH MONDAY

Partly cloudy. Highs around 70. Lows in the mid 40s.

MONDAY NIGHT AND TUESDAY

Mostly clear. Lows in the upper 40s. highs in the mid 60s.
temperature / precipitation

san jose 39 63 43 65 / 0 0 0 0
morgan hill 36 66 40 68 / 0 0 0 0


Visit the IPS Meteostar Home Page